Time;durP1;ratioP1;P1;durP2;ratioP2;P2;SDS_P1;SDS_P2;PMS_P1;PMS_P2;Temp;Humidity;BMP_temperature;BMP_pressure;BME280_temperature;BME280_humidity;BME280_pressure;Samples;Min_cycle;Max_cycle;Signal;HPM_P1;HPM_P2
2021/04/25 00:01:23;;;;;;;8.90;3.00;;;0.30;99.90;;;;;;5015074;28;20393;-86
2021/04/25 00:03:49;;;;;;;16.40;2.45;;;0.30;99.90;;;;;;5014271;28;20022;-86
2021/04/25 00:06:15;;;;;;;14.20;2.70;;;0.20;99.90;;;;;;5013670;28;20124;-86
2021/04/25 00:08:40;;;;;;;18.90;2.80;;;0.20;99.90;;;;;;5014669;28;20026;-87
2021/04/25 00:11:06;;;;;;;16.42;3.38;;;0.10;99.90;;;;;;5014798;28;20022;-87
2021/04/25 00:13:32;;;;;;;17.67;2.65;;;0.10;99.90;;;;;;5013896;28;20113;-87
2021/04/25 00:15:58;;;;;;;11.05;2.85;;;0.00;99.90;;;;;;5013419;28;20530;-87
2021/04/25 00:18:24;;;;;;;13.15;2.47;;;0.00;99.90;;;;;;5014868;28;20038;-87
2021/04/25 00:20:50;;;;;;;11.15;2.10;;;0.00;99.90;;;;;;5012496;28;20034;-84
2021/04/25 00:23:16;;;;;;;5.93;2.05;;;0.00;99.90;;;;;;5012900;28;20026;-83
2021/04/25 00:25:41;;;;;;;11.85;3.85;;;-0.10;99.90;;;;;;5012681;28;20449;-84
2021/04/25 00:28:07;;;;;;;12.00;2.30;;;-0.10;99.90;;;;;;5012611;28;20502;-84
2021/04/25 00:30:33;;;;;;;10.60;3.05;;;-0.10;99.90;;;;;;5012711;28;20430;-84
2021/04/25 00:32:58;;;;;;;10.13;2.75;;;-0.10;99.90;;;;;;5013868;28;20018;-84
2021/04/25 00:35:24;;;;;;;10.90;2.35;;;-0.10;99.90;;;;;;5011880;28;20030;-83
2021/04/25 00:37:50;;;;;;;10.65;2.15;;;0.10;99.90;;;;;;5013295;28;20108;-83
2021/04/25 00:40:17;;;;;;;11.60;2.63;;;0.00;99.90;;;;;;5013771;28;20038;-84
2021/04/25 00:42:43;;;;;;;9.70;2.70;;;0.10;99.90;;;;;;5013439;28;20510;-83
2021/04/25 00:45:15;;;;;;;15.38;3.63;;;0.10;99.90;;;;;;5011793;28;20052;-84
2021/04/25 00:47:42;;;;;;;9.55;2.83;;;0.20;99.90;;;;;;5067929;23;20430;-84
2021/04/25 00:50:09;;;;;;;14.35;2.85;;;0.40;99.90;;;;;;5020575;28;20033;-84
2021/04/25 00:52:38;;;;;;;24.45;2.92;;;0.50;99.90;;;;;;5012229;28;20121;-84
2021/04/25 00:55:07;;;;;;;20.75;3.40;;;0.70;99.90;;;;;;5012828;28;20093;-84
2021/04/25 00:57:33;;;;;;;19.73;2.90;;;0.80;99.90;;;;;;5027373;28;20045;-85
2021/04/25 00:59:59;;;;;;;14.82;2.85;;;0.80;99.90;;;;;;5024704;28;20026;-85
2021/04/25 01:02:26;;;;;;;8.52;2.42;;;0.70;99.90;;;;;;5013439;28;20044;-84
2021/04/25 01:04:51;;;;;;;10.55;2.80;;;0.70;99.90;;;;;;5012667;28;20026;-83
2021/04/25 01:07:17;;;;;;;8.25;2.60;;;0.60;99.90;;;;;;5011718;28;20394;-84
2021/04/25 01:09:44;;;;;;;6.95;2.72;;;0.50;99.90;;;;;;5027542;28;20072;-84
2021/04/25 01:12:09;;;;;;;15.55;3.05;;;0.40;99.90;;;;;;5018793;28;20033;-84
2021/04/25 01:14:35;;;;;;;11.80;2.92;;;0.30;99.90;;;;;;5011064;28;20025;-85
2021/04/25 01:17:01;;;;;;;7.50;2.67;;;0.10;99.90;;;;;;5018368;28;20434;-85
2021/04/25 01:19:26;;;;;;;12.65;2.53;;;0.00;99.90;;;;;;5032803;28;20030;-84
2021/04/25 01:21:52;;;;;;;10.10;2.47;;;0.00;99.90;;;;;;5032523;28;20109;-84
2021/04/25 01:24:17;;;;;;;6.63;2.05;;;0.00;99.90;;;;;;5028923;28;20029;-85
2021/04/25 01:26:43;;;;;;;5.32;2.42;;;-0.10;99.90;;;;;;5022523;28;20398;-85
2021/04/25 01:29:08;;;;;;;14.73;2.42;;;-0.10;99.90;;;;;;5012621;28;20107;-84
2021/04/25 01:31:34;;;;;;;10.52;2.85;;;-0.10;99.90;;;;;;5012638;28;20021;-85
2021/04/25 01:33:59;;;;;;;15.65;4.18;;;-0.10;99.90;;;;;;5016731;28;20033;-84
2021/04/25 01:36:25;;;;;;;10.63;2.75;;;-0.10;99.90;;;;;;5032081;28;20024;-85
2021/04/25 01:38:51;;;;;;;7.60;2.58;;;-0.20;99.90;;;;;;5030981;28;20056;-85
2021/04/25 01:41:17;;;;;;;6.30;2.40;;;-0.30;99.90;;;;;;5025424;28;20091;-85
2021/04/25 01:43:43;;;;;;;9.77;2.35;;;-0.30;99.90;;;;;;5011801;28;20112;-84
2021/04/25 01:46:08;;;;;;;15.02;2.88;;;-0.40;99.90;;;;;;5012680;28;20041;-84
2021/04/25 01:48:34;;;;;;;9.02;2.22;;;-0.40;99.90;;;;;;5012402;28;20482;-84
2021/04/25 01:50:59;;;;;;;11.20;2.55;;;-0.50;99.90;;;;;;5012377;28;20470;-84
2021/04/25 01:53:25;;;;;;;14.55;2.80;;;-0.50;99.90;;;;;;5012333;28;20025;-85
2021/04/25 01:55:50;;;;;;;11.77;2.60;;;-0.60;99.90;;;;;;5011957;28;20026;-85
2021/04/25 01:58:16;;;;;;;8.98;2.38;;;-0.60;99.90;;;;;;5031737;28;20034;-84
2021/04/25 02:00:44;;;;;;;12.68;2.35;;;-0.60;99.90;;;;;;5032077;28;20033;-84
2021/04/25 02:03:12;;;;;;;6.28;2.70;;;-0.60;99.90;;;;;;5015713;28;20084;-84
2021/04/25 02:05:38;;;;;;;14.48;3.75;;;-0.50;99.90;;;;;;5011334;28;20551;-84
2021/04/25 02:08:05;;;;;;;6.55;2.92;;;-0.30;99.90;;;;;;5012167;28;20029;-85
2021/04/25 02:10:31;;;;;;;10.43;3.80;;;-0.30;99.90;;;;;;5010334;28;20470;-84
2021/04/25 02:12:57;;;;;;;15.00;3.30;;;-0.30;99.90;;;;;;5013812;28;20075;-85
2021/04/25 02:15:24;;;;;;;11.75;2.95;;;-0.10;99.90;;;;;;5031021;28;20029;-84
2021/04/25 02:17:50;;;;;;;10.55;3.00;;;-0.10;99.90;;;;;;5030440;28;20035;-85
2021/04/25 02:20:19;;;;;;;10.40;3.28;;;-0.20;99.90;;;;;;5030271;28;20051;-85
2021/04/25 02:22:45;;;;;;;15.52;2.63;;;-0.20;99.90;;;;;;5016993;28;20069;-84
2021/04/25 02:25:12;;;;;;;6.68;2.90;;;-0.40;99.90;;;;;;5010119;28;20467;-84
2021/04/25 02:27:39;;;;;;;10.32;2.58;;;-0.50;99.90;;;;;;5027580;28;20032;-84
2021/04/25 02:30:11;;;;;;;10.05;2.70;;;-0.60;99.90;;;;;;5031715;28;20033;-85
2021/04/25 02:32:37;;;;;;;6.53;3.13;;;-0.70;99.90;;;;;;5028680;28;20549;-85
2021/04/25 02:35:06;;;;;;;8.20;2.47;;;-0.70;99.90;;;;;;5029292;28;20028;-84
2021/04/25 02:37:31;;;;;;;15.68;2.80;;;-0.80;99.90;;;;;;5030181;28;20116;-84
2021/04/25 02:39:57;;;;;;;11.27;3.58;;;-0.90;99.90;;;;;;5031513;28;20531;-84
2021/04/25 02:42:22;;;;;;;12.00;3.60;;;-0.90;99.90;;;;;;5016319;28;20513;-84
2021/04/25 02:44:48;;;;;;;17.65;3.40;;;-0.80;99.90;;;;;;5009099;28;20022;-84
2021/04/25 02:47:14;;;;;;;16.10;3.42;;;-0.80;99.90;;;;;;5010264;28;20060;-84
2021/04/25 02:49:39;;;;;;;7.65;2.97;;;-0.70;99.90;;;;;;5010291;28;20026;-84
2021/04/25 02:52:05;;;;;;;17.33;3.70;;;-0.70;99.90;;;;;;5011587;28;20526;-84
2021/04/25 02:54:32;;;;;;;15.50;3.22;;;-0.60;99.90;;;;;;5011142;28;20026;-85
2021/04/25 02:56:58;;;;;;;22.40;4.18;;;-0.60;99.90;;;;;;5015561;28;20121;-84
2021/04/25 02:59:23;;;;;;;6.47;3.28;;;-0.70;99.90;;;;;;5010399;28;20117;-84
2021/04/25 03:01:49;;;;;;;10.25;3.10;;;-0.70;99.90;;;;;;5015307;28;20037;-85
2021/04/25 03:04:14;;;;;;;17.00;3.88;;;-0.80;99.90;;;;;;5030576;28;20033;-84
2021/04/25 03:06:40;;;;;;;15.73;3.42;;;-0.70;99.90;;;;;;5031220;28;20482;-85
2021/04/25 03:09:06;;;;;;;9.05;2.92;;;-0.60;99.90;;;;;;5031284;28;20100;-85
2021/04/25 03:11:31;;;;;;;9.10;3.20;;;-0.60;99.90;;;;;;5022439;28;20122;-85
2021/04/25 03:13:57;;;;;;;23.50;3.88;;;-0.70;99.90;;;;;;5020479;28;20037;-84
2021/04/25 03:16:22;;;;;;;19.33;3.28;;;-0.70;99.90;;;;;;5031232;28;20021;-84
2021/04/25 03:18:48;;;;;;;21.40;4.47;;;-0.80;99.90;;;;;;5030993;28;20024;-84
2021/04/25 03:21:13;;;;;;;12.98;3.10;;;-0.80;99.90;;;;;;5028741;28;20052;-84
2021/04/25 03:23:39;;;;;;;14.52;4.22;;;-0.80;99.90;;;;;;5009758;28;20026;-84
2021/04/25 03:26:04;;;;;;;13.48;5.07;;;-0.80;99.90;;;;;;5013363;28;20509;-84
2021/04/25 03:28:30;;;;;;;15.00;5.93;;;-0.70;99.90;;;;;;5011266;28;20037;-84
2021/04/25 03:30:56;;;;;;;9.93;3.17;;;-0.70;99.90;;;;;;5011409;28;20026;-84
2021/04/25 03:33:22;;;;;;;13.70;3.90;;;-0.70;99.90;;;;;;5010275;28;20026;-84
2021/04/25 03:35:48;;;;;;;20.02;4.07;;;-0.50;99.90;;;;;;5010709;28;20022;-84
2021/04/25 03:38:14;;;;;;;10.85;3.38;;;-0.50;99.90;;;;;;5011292;28;20041;-84
2021/04/25 03:40:40;;;;;;;14.85;3.50;;;-0.50;99.90;;;;;;5009896;28;20026;-84
2021/04/25 03:43:05;;;;;;;11.63;4.13;;;-0.50;99.90;;;;;;5031016;28;20100;-84
2021/04/25 03:45:31;;;;;;;15.35;4.00;;;-0.60;99.90;;;;;;5030272;28;20033;-84
2021/04/25 03:47:57;;;;;;;11.02;4.45;;;-0.60;99.90;;;;;;5030540;28;20035;-84
2021/04/25 03:50:25;;;;;;;14.88;3.95;;;-0.60;99.90;;;;;;5029663;28;20409;-84
2021/04/25 03:52:50;;;;;;;20.15;4.57;;;-0.50;99.90;;;;;;5014307;28;20022;-84
2021/04/25 03:55:18;;;;;;;25.08;3.70;;;-0.50;99.90;;;;;;5010557;28;20022;-85
2021/04/25 03:57:44;;;;;;;13.88;4.75;;;-0.50;99.90;;;;;;5031370;28;20039;-85
2021/04/25 04:00:13;;;;;;;14.20;4.30;;;-0.60;99.90;;;;;;5034286;28;20108;-84
2021/04/25 04:02:39;;;;;;;12.18;3.75;;;-0.60;99.90;;;;;;5021917;28;20083;-85
2021/04/25 04:05:05;;;;;;;10.32;3.67;;;-0.70;99.90;;;;;;5019038;28;20490;-85
2021/04/25 04:07:31;;;;;;;13.13;4.45;;;-0.80;99.90;;;;;;5033129;28;20071;-84
2021/04/25 04:09:56;;;;;;;14.40;3.75;;;-0.80;99.90;;;;;;5034102;28;20029;-85
2021/04/25 04:12:22;;;;;;;15.65;4.00;;;-0.80;99.90;;;;;;5018429;28;20040;-84
2021/04/25 04:14:48;;;;;;;17.10;4.30;;;-0.90;99.90;;;;;;5031180;28;20108;-84
2021/04/25 04:17:14;;;;;;;10.38;3.55;;;-1.00;99.90;;;;;;5032624;28;20552;-84
2021/04/25 04:19:40;;;;;;;15.02;4.40;;;-1.10;99.90;;;;;;5034032;28;20045;-84
2021/04/25 04:22:06;;;;;;;20.35;4.15;;;-1.10;99.90;;;;;;5023393;28;20026;-84
2021/04/25 04:24:31;;;;;;;13.80;3.55;;;-1.20;99.90;;;;;;5013516;28;20512;-85
2021/04/25 04:26:57;;;;;;;19.85;3.70;;;-1.20;99.90;;;;;;5023012;28;20514;-84
2021/04/25 04:29:23;;;;;;;13.57;3.70;;;-1.20;99.90;;;;;;5033701;28;20064;-84
2021/04/25 04:31:48;;;;;;;12.70;3.50;;;-1.20;99.90;;;;;;5029460;28;20022;-85
2021/04/25 04:34:14;;;;;;;21.10;4.47;;;-1.30;99.90;;;;;;5013264;28;20032;-84
2021/04/25 04:36:40;;;;;;;24.42;5.70;;;-1.20;99.90;;;;;;5013930;28;20500;-84
2021/04/25 04:39:05;;;;;;;27.45;11.60;;;-1.20;99.90;;;;;;5013855;28;20387;-84
2021/04/25 04:41:31;;;;;;;16.83;9.15;;;-1.20;99.90;;;;;;5020565;28;20032;-84
2021/04/25 04:43:58;;;;;;;13.75;7.70;;;-1.20;99.90;;;;;;5032884;28;20104;-84
2021/04/25 04:46:24;;;;;;;17.85;7.25;;;-1.10;99.90;;;;;;5033288;28;20508;-85
2021/04/25 04:48:49;;;;;;;13.55;6.18;;;-1.10;99.90;;;;;;5033213;28;20034;-85
2021/04/25 04:51:15;;;;;;;26.20;6.78;;;-1.00;99.90;;;;;;5031192;28;20100;-84
2021/04/25 04:53:40;;;;;;;22.40;10.70;;;-1.00;99.90;;;;;;5013122;28;20033;-84
2021/04/25 04:56:06;;;;;;;97.18;31.00;;;-0.90;99.90;;;;;;5016732;28;20682;-83
2021/04/25 04:58:32;;;;;;;25.27;8.45;;;-0.80;99.90;;;;;;5033241;28;20021;-84
2021/04/25 05:00:57;;;;;;;25.35;6.93;;;-0.70;99.90;;;;;;5031841;28;20430;-84
2021/04/25 05:03:23;;;;;;;17.60;4.68;;;-0.60;99.90;;;;;;5015125;28;20561;-85
2021/04/25 05:05:49;;;;;;;37.42;12.30;;;-0.40;99.90;;;;;;5012762;28;20030;-85
2021/04/25 05:08:14;;;;;;;47.38;14.73;;;-0.30;99.90;;;;;;5011499;28;20026;-84
2021/04/25 05:10:40;;;;;;;44.85;13.48;;;-0.20;99.90;;;;;;5012171;28;20075;-84
2021/04/25 05:13:10;;;;;;;36.95;10.50;;;-0.10;99.90;;;;;;5012818;28;20021;-84
2021/04/25 05:15:39;;;;;;;49.83;14.32;;;0.00;99.90;;;;;;5011196;28;20026;-84
2021/04/25 05:18:06;;;;;;;14.60;4.78;;;0.00;99.90;;;;;;5013092;28;20026;-84
2021/04/25 05:20:32;;;;;;;30.63;10.57;;;0.10;99.90;;;;;;5013099;28;20065;-85
2021/04/25 05:22:58;;;;;;;50.78;11.75;;;0.20;99.90;;;;;;5027307;28;20057;-85
2021/04/25 05:25:24;;;;;;;41.33;13.85;;;0.30;99.90;;;;;;5030836;28;20057;-85
2021/04/25 05:27:50;;;;;;;36.28;13.10;;;0.30;99.90;;;;;;5014506;28;20042;-85
2021/04/25 05:30:17;;;;;;;66.35;19.52;;;0.40;99.90;;;;;;5012865;28;20076;-84
2021/04/25 05:32:43;;;;;;;108.68;30.85;;;0.50;99.90;;;;;;5011648;28;20559;-84
2021/04/25 05:35:09;;;;;;;17.73;5.10;;;0.60;99.90;;;;;;5010894;28;20116;-84
2021/04/25 05:37:34;;;;;;;13.23;5.07;;;0.70;99.90;;;;;;5011430;28;20079;-84
2021/04/25 05:40:00;;;;;;;15.20;5.35;;;0.80;99.90;;;;;;5012772;28;20054;-84
2021/04/25 05:42:25;;;;;;;24.92;7.97;;;0.90;99.90;;;;;;5011243;28;20038;-84
2021/04/25 05:44:51;;;;;;;27.02;5.18;;;1.00;99.90;;;;;;5011939;28;20374;-84
2021/04/25 05:47:17;;;;;;;10.82;4.05;;;1.20;99.90;;;;;;5012396;28;20394;-85
2021/04/25 05:49:43;;;;;;;18.13;4.40;;;1.20;99.90;;;;;;5012575;28;20034;-84
2021/04/25 05:52:09;;;;;;;21.55;4.88;;;1.30;99.90;;;;;;5012694;28;20026;-84
2021/04/25 05:54:35;;;;;;;17.85;5.18;;;1.40;99.90;;;;;;5010579;28;20165;-85
2021/04/25 05:57:00;;;;;;;21.52;5.07;;;1.60;99.90;;;;;;5013249;28;20552;-84
2021/04/25 05:59:26;;;;;;;16.30;4.40;;;1.70;99.90;;;;;;5012303;28;20064;-84
2021/04/25 06:01:51;;;;;;;16.38;5.07;;;1.80;99.90;;;;;;5014422;28;20083;-84
2021/04/25 06:04:17;;;;;;;16.05;4.78;;;2.00;99.90;;;;;;5031032;28;20060;-84
2021/04/25 06:06:42;;;;;;;18.83;4.47;;;2.10;99.90;;;;;;5031624;28;20029;-85
2021/04/25 06:09:08;;;;;;;18.35;3.88;;;2.20;99.90;;;;;;5030512;28;20095;-85
2021/04/25 06:11:35;;;;;;;11.95;4.15;;;2.40;99.90;;;;;;5024049;28;20026;-85
2021/04/25 06:14:01;;;;;;;16.10;5.18;;;2.50;99.90;;;;;;5010351;28;20102;-85
2021/04/25 06:16:27;;;;;;;16.83;3.50;;;2.60;99.90;;;;;;5010775;28;20063;-85
2021/04/25 06:18:52;;;;;;;10.85;4.38;;;2.80;99.90;;;;;;5011029;28;20029;-85
2021/04/25 06:21:18;;;;;;;25.05;4.28;;;3.00;99.90;;;;;;5012779;28;20088;-85
2021/04/25 06:23:44;;;;;;;9.68;4.13;;;3.10;99.90;;;;;;5029602;28;20032;-84
2021/04/25 06:26:09;;;;;;;10.13;3.42;;;3.30;99.90;;;;;;5027424;28;20394;-84
2021/04/25 06:28:35;;;;;;;15.35;4.07;;;3.50;99.90;;;;;;5011560;28;20397;-86
2021/04/25 06:31:00;;;;;;;24.00;4.43;;;3.60;99.90;;;;;;5011884;28;20393;-85
2021/04/25 06:33:26;;;;;;;11.50;3.70;;;3.80;99.90;;;;;;5011911;28;20033;-85
2021/04/25 06:35:52;;;;;;;8.82;4.10;;;4.00;99.90;;;;;;5011080;28;20024;-84
2021/04/25 06:38:17;;;;;;;17.33;3.95;;;4.30;99.90;;;;;;5011685;28;20100;-84
2021/04/25 06:40:43;;;;;;;13.40;3.72;;;4.40;99.90;;;;;;5011890;28;20057;-85
2021/04/25 06:43:09;;;;;;;14.95;3.88;;;4.60;99.90;;;;;;5031495;28;20478;-84
2021/04/25 06:45:36;;;;;;;12.20;4.00;;;4.80;99.90;;;;;;5030668;28;20032;-85
2021/04/25 06:48:01;;;;;;;12.70;3.58;;;4.90;99.90;;;;;;5029853;28;20448;-85
2021/04/25 06:50:27;;;;;;;11.68;3.28;;;5.10;99.90;;;;;;5031439;28;20029;-85
2021/04/25 06:52:53;;;;;;;14.40;3.50;;;5.30;99.90;;;;;;5015901;28;20497;-85
2021/04/25 06:55:21;;;;;;;10.45;3.42;;;5.40;99.90;;;;;;5010957;28;20405;-84
2021/04/25 06:57:48;;;;;;;24.42;5.03;;;5.70;99.90;;;;;;5028540;28;20025;-85
2021/04/25 07:00:15;;;;;;;12.02;3.67;;;5.80;99.90;;;;;;5029934;28;20053;-85
2021/04/25 07:02:41;;;;;;;11.25;3.47;;;6.00;99.90;;;;;;5020395;28;20026;-84
2021/04/25 07:05:08;;;;;;;6.47;3.22;;;6.00;99.90;;;;;;4999467;28;20022;-82
2021/04/25 07:07:34;;;;;;;8.57;4.30;;;6.30;99.90;;;;;;4989481;28;20030;-83
2021/04/25 07:10:02;;;;;;;13.30;2.92;;;6.40;99.90;;;;;;4996508;28;20095;-81
2021/04/25 07:12:27;;;;;;;10.48;2.90;;;6.70;99.90;;;;;;4990549;28;20395;-82
2021/04/25 07:14:53;;;;;;;17.80;3.55;;;7.10;99.90;;;;;;4995519;28;20037;-81
2021/04/25 07:17:19;;;;;;;8.75;3.22;;;7.40;99.90;;;;;;4995206;28;20025;-82
2021/04/25 07:19:45;;;;;;;11.15;3.05;;;7.70;99.90;;;;;;4995028;28;20512;-84
2021/04/25 07:22:11;;;;;;;6.32;2.45;;;7.90;99.90;;;;;;4997448;28;20432;-83
2021/04/25 07:24:37;;;;;;;13.20;3.25;;;8.10;99.90;;;;;;4986871;28;20026;-84
2021/04/25 07:27:03;;;;;;;9.35;2.72;;;8.10;99.90;;;;;;4995760;28;20719;-83
2021/04/25 07:29:30;;;;;;;18.55;3.50;;;8.10;99.90;;;;;;4996752;28;20398;-84
2021/04/25 07:31:57;;;;;;;6.28;2.78;;;8.30;99.90;;;;;;4997911;28;20027;-86
2021/04/25 07:34:22;;;;;;;9.90;2.63;;;8.30;99.90;;;;;;4991770;28;20104;-85
2021/04/25 07:36:48;;;;;;;6.75;2.25;;;8.40;99.90;;;;;;4996841;28;20026;-85
2021/04/25 07:39:14;;;;;;;4.32;2.03;;;8.40;99.90;;;;;;4992370;28;20030;-84
2021/04/25 07:41:39;;;;;;;7.95;3.00;;;8.40;99.90;;;;;;5004746;28;20037;-82
2021/04/25 07:44:05;;;;;;;12.68;2.33;;;8.60;99.90;;;;;;5008019;28;20022;-80
2021/04/25 07:46:31;;;;;;;9.32;2.55;;;9.00;99.90;;;;;;5014693;28;20040;-79
2021/04/25 07:48:56;;;;;;;4.00;2.20;;;9.40;99.90;;;;;;5012866;28;20576;-79
2021/04/25 07:51:22;;;;;;;6.60;2.15;;;9.60;99.90;;;;;;5006597;28;20436;-81
2021/04/25 07:53:51;;;;;;;7.68;2.00;;;9.30;99.90;;;;;;4995546;28;20014;-79
2021/04/25 07:56:17;;;;;;;11.07;2.10;;;9.40;99.90;;;;;;4988810;28;20057;-80
2021/04/25 07:58:42;;;;;;;8.10;2.35;;;9.40;99.90;;;;;;4998103;28;20033;-80
2021/04/25 08:01:08;;;;;;;7.63;2.05;;;9.40;99.90;;;;;;5004874;28;20031;-79
2021/04/25 08:03:33;;;;;;;1.92;1.10;;;9.80;99.90;;;;;;4991565;28;20029;-82
2021/04/25 08:06:00;;;;;;;8.65;1.13;;;9.90;99.90;;;;;;4995017;28;20034;-84
2021/04/25 08:08:26;;;;;;;5.18;1.50;;;9.90;99.90;;;;;;4998680;28;20045;-83
2021/04/25 08:10:51;;;;;;;4.60;1.83;;;10.20;99.90;;;;;;4993123;28;20035;-83
2021/04/25 08:13:17;;;;;;;4.90;1.52;;;10.40;99.90;;;;;;5008184;28;20080;-82
2021/04/25 08:15:43;;;;;;;4.32;1.50;;;10.70;99.90;;;;;;5013387;28;20397;-81
2021/04/25 08:18:09;;;;;;;13.95;2.03;;;10.90;99.90;;;;;;5014050;28;20548;-82
2021/04/25 08:20:35;;;;;;;1.02;0.70;;;10.90;99.90;;;;;;5021615;28;20021;-82
2021/04/25 08:23:01;;;;;;;2.05;0.93;;;10.50;97.30;;;;;;5020521;28;20037;-82
2021/04/25 08:25:27;;;;;;;9.27;0.95;;;10.50;84.20;;;;;;5013351;28;20022;-82
2021/04/25 08:27:53;;;;;;;6.97;1.08;;;10.70;88.90;;;;;;5031292;28;20512;-83
2021/04/25 08:30:19;;;;;;;4.22;1.05;;;11.00;85.70;;;;;;5031985;28;20026;-82
2021/04/25 08:32:45;;;;;;;6.43;1.42;;;11.30;94.00;;;;;;5032429;28;20394;-83
2021/04/25 08:35:11;;;;;;;6.78;1.38;;;11.60;93.80;;;;;;5031871;28;20022;-82
2021/04/25 08:37:36;;;;;;;4.60;1.88;;;11.50;86.80;;;;;;5033450;28;20569;-82
2021/04/25 08:40:03;;;;;;;4.97;1.02;;;11.90;90.50;;;;;;5033586;28;20025;-82
2021/04/25 08:42:28;;;;;;;3.67;0.93;;;11.80;79.80;;;;;;5014371;28;20022;-81
2021/04/25 08:44:55;;;;;;;2.45;1.00;;;11.90;83.60;;;;;;5013198;28;20068;-81
2021/04/25 08:47:23;;;;;;;2.20;1.13;;;12.00;84.10;;;;;;5013453;28;20029;-81
2021/04/25 08:49:49;;;;;;;1.10;1.00;;;12.40;84.60;;;;;;5013607;28;20030;-83
2021/04/25 08:52:15;;;;;;;6.05;0.90;;;12.50;73.10;;;;;;5012375;28;20084;-82
2021/04/25 08:54:42;;;;;;;1.83;0.70;;;12.00;68.20;;;;;;5012976;28;20033;-82
2021/04/25 08:57:08;;;;;;;11.85;0.70;;;11.90;68.40;;;;;;5025088;28;20091;-82
2021/04/25 08:59:33;;;;;;;1.75;0.88;;;11.70;64.40;;;;;;5024870;28;20029;-81
2021/04/25 09:01:59;;;;;;;2.53;1.02;;;11.50;65.90;;;;;;5013332;28;20105;-81
2021/04/25 09:04:25;;;;;;;2.53;0.75;;;11.30;60.60;;;;;;5012724;28;20030;-81
2021/04/25 09:07:12;;;;;;;6.20;0.90;;;11.20;61.70;;;;;;5013191;28;20025;-81
2021/04/25 09:09:46;;;;;;;1.17;0.68;;;11.50;69.80;;;;;;5017494;28;20032;-81
2021/04/25 09:12:15;;;;;;;4.43;1.23;;;11.80;69.30;;;;;;5020337;28;20033;-81
2021/04/25 09:14:41;;;;;;;2.75;0.90;;;11.70;63.70;;;;;;5031532;28;20082;-82
2021/04/25 09:17:07;;;;;;;5.50;1.30;;;11.80;67.70;;;;;;5031545;28;20075;-82
2021/04/25 09:20:02;;;;;;;1.83;0.80;;;12.00;61.70;;;;;;5031368;28;20456;-82
2021/04/25 09:22:45;;;;;;;3.42;0.70;;;12.00;58.10;;;;;;5004190;28;20124;-81
2021/04/25 09:25:14;;;;;;;4.15;1.05;;;11.70;58.40;;;;;;5009170;28;20021;-81
2021/04/25 09:27:42;;;;;;;2.70;0.80;;;12.00;72.50;;;;;;5012684;28;20489;-82
2021/04/25 09:30:09;;;;;;;1.48;0.80;;;12.00;59.60;;;;;;4998452;28;20509;-80
2021/04/25 09:32:35;;;;;;;1.63;0.80;;;11.30;58.70;;;;;;4993297;28;20026;-80
2021/04/25 09:35:27;;;;;;;4.75;1.00;;;10.90;62.80;;;;;;4991250;28;20080;-81
2021/04/25 09:37:53;;;;;;;0.95;0.80;;;10.90;64.00;;;;;;4991203;28;20449;-81
2021/04/25 09:40:28;;;;;;;4.47;1.08;;;10.90;64.30;;;;;;4995022;28;20034;-80
2021/04/25 09:43:01;;;;;;;4.75;0.98;;;11.00;60.60;;;;;;5010808;28;20087;-80
2021/04/25 09:45:35;;;;;;;3.10;0.60;;;10.70;62.90;;;;;;5011656;28;20041;-80
2021/04/25 09:48:25;;;;;;;1.90;0.82;;;11.00;66.00;;;;;;5010966;28;20034;-80
2021/04/25 09:51:17;;;;;;;4.63;1.33;;;11.10;60.50;;;;;;5011157;28;20025;-79
2021/04/25 09:53:59;;;;;;;5.57;0.77;;;11.30;65.80;;;;;;5010182;28;20021;-80
2021/04/25 09:56:37;;;;;;;7.43;1.30;;;12.30;72.40;;;;;;5030966;28;20393;-80
2021/04/25 09:59:04;;;;;;;3.10;1.00;;;13.20;70.40;;;;;;5022500;28;20030;-81
2021/04/25 10:01:37;;;;;;;3.45;0.70;;;13.60;58.60;;;;;;5012183;28;20061;-80
2021/04/25 10:04:04;;;;;;;1.27;0.70;;;13.20;57.20;;;;;;5011337;28;20510;-80
2021/04/25 10:06:48;;;;;;;1.60;0.82;;;13.00;60.50;;;;;;5011027;28;20498;-80
2021/04/25 10:09:21;;;;;;;4.53;1.00;;;12.70;54.90;;;;;;5010926;28;20026;-80
2021/04/25 10:11:48;;;;;;;0.85;0.85;;;12.70;57.70;;;;;;5011022;28;20026;-80
2021/04/25 10:14:14;;;;;;;1.70;0.85;;;12.60;55.00;;;;;;5009886;28;20026;-82
2021/04/25 10:16:41;;;;;;;4.85;0.93;;;11.80;55.30;;;;;;5007002;28;20015;-79
2021/04/25 10:19:11;;;;;;;3.33;1.02;;;11.40;55.00;;;;;;4992678;28;20018;-80
2021/04/25 10:21:37;;;;;;;5.82;0.82;;;11.00;55.80;;;;;;5013107;28;20034;-80
2021/04/25 10:24:05;;;;;;;1.15;0.63;;;10.60;58.90;;;;;;5011653;28;20034;-80
2021/04/25 10:26:47;;;;;;;3.03;0.90;;;10.30;58.40;;;;;;5012454;28;20421;-82
2021/04/25 10:29:15;;;;;;;1.95;0.90;;;10.00;60.80;;;;;;5010824;28;20025;-82
2021/04/25 10:31:42;;;;;;;1.35;0.90;;;10.50;59.30;;;;;;5010940;28;20022;-81
2021/04/25 10:34:18;;;;;;;7.00;0.88;;;11.30;59.50;;;;;;5010248;28;20022;-82
2021/04/25 10:36:44;;;;;;;5.15;1.13;;;11.90;71.20;;;;;;5012367;28;20028;-83
2021/04/25 10:39:32;;;;;;;1.05;0.77;;;13.00;67.60;;;;;;5010915;28;20026;-82
2021/04/25 10:42:28;;;;;;;2.30;0.70;;;13.90;54.10;;;;;;5011022;28;20030;-82
2021/04/25 10:44:56;;;;;;;4.20;0.63;;;14.60;61.40;;;;;;5011603;28;20030;-82
2021/04/25 10:47:22;;;;;;;1.58;0.95;;;15.10;60.00;;;;;;5003107;28;20031;-80
2021/04/25 10:49:48;;;;;;;2.00;0.75;;;15.50;54.80;;;;;;5011047;28;20045;-82
2021/04/25 10:52:31;;;;;;;2.60;1.20;;;15.90;58.60;;;;;;5028494;28;20018;-81
2021/04/25 10:55:13;;;;;;;2.80;0.80;;;16.40;51.30;;;;;;5030932;28;20549;-80
2021/04/25 10:58:08;;;;;;;1.35;0.80;;;16.20;49.00;;;;;;5030284;28;20026;-80
2021/04/25 11:00:33;;;;;;;6.20;0.90;;;15.00;47.70;;;;;;5029877;28;20076;-86
2021/04/25 11:03:00;;;;;;;1.13;0.63;;;14.20;46.10;;;;;;5008733;28;20037;-87
2021/04/25 11:05:38;;;;;;;6.70;0.98;;;13.80;51.30;;;;;;5009027;28;20046;-85
2021/04/25 11:08:13;;;;;;;0.80;0.75;;;13.50;50.40;;;;;;5016155;28;20034;-81
2021/04/25 11:10:47;;;;;;;3.95;1.00;;;13.20;50.60;;;;;;5014777;28;20026;-81
2021/04/25 11:13:40;;;;;;;2.72;0.93;;;13.00;54.30;;;;;;5015554;28;20057;-81
2021/04/25 11:16:08;;;;;;;28.45;2.70;;;12.90;53.00;;;;;;5005871;28;20112;-82
2021/04/25 11:18:55;;;;;;;3.88;0.88;;;12.60;54.60;;;;;;5012854;28;20034;-81
2021/04/25 11:21:30;;;;;;;12.80;1.10;;;12.50;55.60;;;;;;5010390;28;20021;-84
2021/04/25 11:23:58;;;;;;;2.58;1.15;;;12.50;55.30;;;;;;5029118;28;20076;-84
2021/04/25 11:26:39;;;;;;;2.75;0.70;;;13.00;55.20;;;;;;5014612;28;20033;-84
2021/04/25 11:29:10;;;;;;;5.95;0.80;;;13.30;55.10;;;;;;5013481;28;20075;-86
2021/04/25 11:31:46;;;;;;;6.57;0.80;;;13.30;53.70;;;;;;5014229;28;20029;-85
2021/04/25 11:34:30;;;;;;;6.82;1.00;;;13.70;57.40;;;;;;5012906;28;20025;-82
2021/04/25 11:37:17;;;;;;;1.63;0.90;;;13.60;56.30;;;;;;5012477;28;20037;-81
2021/04/25 11:39:48;;;;;;;4.47;0.80;;;13.40;54.80;;;;;;5004612;28;20038;-81
2021/04/25 11:42:22;;;;;;;5.10;0.90;;;13.00;51.90;;;;;;5013357;28;20026;-82
2021/04/25 11:44:48;;;;;;;1.58;0.60;;;12.70;53.50;;;;;;5014569;28;20041;-82
2021/04/25 11:47:15;;;;;;;3.70;1.00;;;12.50;56.20;;;;;;5012462;28;20022;-78
2021/04/25 11:49:51;;;;;;;2.25;1.10;;;12.50;54.70;;;;;;5013360;28;20108;-82
2021/04/25 11:52:22;;;;;;;2.15;0.85;;;12.40;54.10;;;;;;5011247;28;20052;-83
2021/04/25 11:55:01;;;;;;;2.53;1.00;;;12.10;54.60;;;;;;5013265;28;20478;-83
2021/04/25 11:57:30;;;;;;;1.88;1.00;;;12.10;57.80;;;;;;5014808;28;20026;-84
2021/04/25 12:00:00;;;;;;;2.67;0.90;;;12.40;57.40;;;;;;5014393;28;20080;-83
2021/04/25 12:02:29;;;;;;;2.17;0.90;;;13.00;57.10;;;;;;5012593;28;20508;-83
2021/04/25 12:05:00;;;;;;;1.33;0.88;;;14.00;53.10;;;;;;5012614;28;20034;-83
2021/04/25 12:07:46;;;;;;;8.27;0.88;;;15.00;52.60;;;;;;5014300;28;20088;-83
2021/04/25 12:10:32;;;;;;;4.25;0.80;;;15.50;50.10;;;;;;5014500;28;20049;-83
2021/04/25 12:13:13;;;;;;;1.60;0.80;;;15.80;51.10;;;;;;5014226;28;20068;-82
2021/04/25 12:15:51;;;;;;;1.13;0.70;;;16.50;51.00;;;;;;5012212;28;20033;-78
2021/04/25 12:18:21;;;;;;;2.92;0.90;;;17.50;46.00;;;;;;5012012;28;20054;-83
2021/04/25 12:20:49;;;;;;;2.70;1.23;;;17.50;45.80;;;;;;4995106;28;20845;-81
2021/04/25 12:23:18;;;;;;;0.70;0.70;;;17.30;43.60;;;;;;5012583;28;20370;-80
2021/04/25 12:25:45;;;;;;;4.85;0.95;;;16.70;41.30;;;;;;5013395;28;20433;-80
2021/04/25 12:28:12;;;;;;;1.40;1.02;;;16.80;47.10;;;;;;5011108;28;20034;-79
2021/04/25 12:30:38;;;;;;;3.47;0.80;;;15.40;40.80;;;;;;5014298;28;20025;-80
2021/04/25 12:33:13;;;;;;;4.53;1.20;;;14.30;43.00;;;;;;5011909;28;20096;-80
2021/04/25 12:35:42;;;;;;;1.88;0.70;;;13.80;49.20;;;;;;5011140;28;20551;-79
2021/04/25 12:38:21;;;;;;;1.50;1.10;;;14.30;50.10;;;;;;5013056;28;20056;-79
2021/04/25 12:40:53;;;;;;;3.00;1.10;;;14.80;48.20;;;;;;5014074;28;20565;-79
2021/04/25 12:43:19;;;;;;;2.47;1.00;;;14.70;47.50;;;;;;5013110;28;20061;-79
2021/04/25 12:45:45;;;;;;;3.40;0.90;;;14.80;46.30;;;;;;5012298;28;20065;-79
2021/04/25 12:48:21;;;;;;;0.70;0.65;;;14.90;45.60;;;;;;5013015;28;20080;-79
2021/04/25 12:51:24;;;;;;;5.80;1.02;;;15.10;44.90;;;;;;5010905;28;20029;-79